createdAt,value
2018-04-26T00:01:16.264Z,72.15
2018-04-26T00:03:47.039Z,67.70
2018-04-26T00:06:17.761Z,71.95
2018-04-26T00:08:48.407Z,69.35
2018-04-26T00:11:19.076Z,65.30
2018-04-26T00:13:49.809Z,62.50
2018-04-26T00:16:20.529Z,63.63
2018-04-26T00:18:51.149Z,63.53
2018-04-26T00:21:21.918Z,66.50
2018-04-26T00:23:52.555Z,70.12
2018-04-26T00:26:23.120Z,65.37
2018-04-26T00:28:54.051Z,66.18
2018-04-26T00:31:24.746Z,65.62
2018-04-26T00:33:55.581Z,69.75
2018-04-26T00:36:26.314Z,60.60
2018-04-26T00:38:56.966Z,62.13
2018-04-26T00:41:27.495Z,56.92
2018-04-26T00:43:58.210Z,62.30
2018-04-26T00:46:28.826Z,62.62
2018-04-26T00:48:59.448Z,62.15
2018-04-26T00:51:38.648Z,56.85
2018-04-26T00:54:09.769Z,63.53
2018-04-26T00:56:40.385Z,66.47
2018-04-26T00:59:11.185Z,64.82
2018-04-26T01:01:42.083Z,67.28
2018-04-26T01:04:12.750Z,67.55
2018-04-26T01:06:43.347Z,65.62
2018-04-26T01:09:14.001Z,71.53
2018-04-26T01:11:45.215Z,67.43
2018-04-26T01:14:16.123Z,70.20
2018-04-26T01:16:46.841Z,72.90
2018-04-26T01:19:17.571Z,78.28
2018-04-26T01:21:48.476Z,74.68
2018-04-26T01:24:19.157Z,72.82
2018-04-26T01:26:49.914Z,77.37
2018-04-26T01:29:20.436Z,76.12
2018-04-26T01:31:51.116Z,74.25
2018-04-26T01:34:21.753Z,72.05
2018-04-26T01:38:00.667Z,69.22
2018-04-26T01:40:31.355Z,72.62
2018-04-26T01:43:02.076Z,72.15
2018-04-26T01:45:32.799Z,74.43
2018-04-26T01:48:03.440Z,76.07
2018-04-26T01:50:34.283Z,69.80
2018-04-26T01:53:04.843Z,72.32
2018-04-26T01:55:35.549Z,75.03
2018-04-26T01:58:06.141Z,70.85
2018-04-26T02:00:36.850Z,80.32
2018-04-26T02:03:07.364Z,76.62
2018-04-26T02:05:37.982Z,75.90
2018-04-26T02:08:08.742Z,78.15
2018-04-26T02:10:39.426Z,82.62
2018-04-26T02:13:10.050Z,81.37
2018-04-26T02:15:40.658Z,77.18
2018-04-26T02:18:11.333Z,74.95
2018-04-26T02:20:42.330Z,77.43
2018-04-26T02:23:13.203Z,87.45
2018-04-26T02:25:43.870Z,78.95
2018-04-26T02:28:14.559Z,88.28
2018-04-26T02:30:45.176Z,79.47
2018-04-26T02:33:15.794Z,81.55
2018-04-26T02:35:46.534Z,80.80
2018-04-26T02:38:17.296Z,75.20
2018-04-26T02:40:47.836Z,73.78
2018-04-26T02:43:18.497Z,75.37
2018-04-26T02:45:49.051Z,73.32
2018-04-26T02:48:19.725Z,72.18
2018-04-26T02:50:50.300Z,73.62
2018-04-26T02:53:20.924Z,69.10
2018-04-26T02:55:51.530Z,73.07
2018-04-26T02:58:22.246Z,77.00
2018-04-26T03:00:52.864Z,74.50
2018-04-26T03:03:23.491Z,70.50
2018-04-26T03:05:54.193Z,64.00
2018-04-26T03:08:24.853Z,69.62
2018-04-26T03:10:55.524Z,65.40
2018-04-26T03:13:26.280Z,70.20
2018-04-26T03:15:57.389Z,70.68
2018-04-26T03:18:28.018Z,71.87
2018-04-26T03:20:58.703Z,66.80
2018-04-26T03:23:29.355Z,68.18
2018-04-26T03:25:59.984Z,68.85
2018-04-26T03:28:30.705Z,67.75
2018-04-26T03:31:01.464Z,65.60
2018-04-26T03:33:32.132Z,71.30
2018-04-26T03:36:02.875Z,69.37
2018-04-26T03:38:33.543Z,68.45
2018-04-26T03:41:04.265Z,67.47
2018-04-26T03:43:34.798Z,73.28
2018-04-26T03:46:05.780Z,71.78
2018-04-26T03:48:36.597Z,73.12
2018-04-26T03:51:07.269Z,67.75
2018-04-26T03:53:37.912Z,72.12
2018-04-26T03:56:09.074Z,67.07
2018-04-26T03:58:39.617Z,67.20
2018-04-26T04:03:26.223Z,69.93
2018-04-26T04:06:01.429Z,71.53
2018-04-26T04:08:32.192Z,67.85
2018-04-26T04:11:02.989Z,79.43
2018-04-26T04:13:33.604Z,70.60
2018-04-26T04:16:04.252Z,73.25
2018-04-26T04:18:35.080Z,74.40
2018-04-26T04:21:05.886Z,71.12
2018-04-26T04:23:36.439Z,67.80
2018-04-26T04:26:06.972Z,69.20
2018-04-26T04:28:37.564Z,67.15
2018-04-26T04:31:08.202Z,75.95
2018-04-26T04:33:38.859Z,70.57
2018-04-26T04:36:09.567Z,69.87
2018-04-26T04:38:40.224Z,70.60
2018-04-26T04:41:10.789Z,67.90
2018-04-26T04:43:41.457Z,70.40
2018-04-26T04:46:12.525Z,65.97
2018-04-26T04:48:43.185Z,66.37
2018-04-26T04:51:13.767Z,69.53
2018-04-26T04:53:45.016Z,63.65
2018-04-26T04:56:15.588Z,56.88
2018-04-26T04:58:46.277Z,58.85
2018-04-26T05:01:16.976Z,57.97
2018-04-26T05:03:47.972Z,59.67
2018-04-26T05:06:18.851Z,63.63
2018-04-26T05:08:49.746Z,66.95
2018-04-26T05:11:20.571Z,58.70
2018-04-26T05:13:51.501Z,62.17
2018-04-26T05:16:22.112Z,63.72
2018-04-26T05:18:52.686Z,72.20
2018-04-26T05:21:23.275Z,62.78
2018-04-26T05:23:53.898Z,68.47
2018-04-26T05:26:24.933Z,65.97
2018-04-26T05:28:55.678Z,64.47
2018-04-26T05:31:26.393Z,61.88
2018-04-26T05:33:57.045Z,67.37
2018-04-26T05:36:27.576Z,65.57
2018-04-26T05:38:58.394Z,61.58
2018-04-26T05:41:29.071Z,62.80
2018-04-26T05:44:00.324Z,61.78
2018-04-26T05:46:30.984Z,61.55
2018-04-26T05:49:01.677Z,60.67
2018-04-26T05:51:32.416Z,63.22
2018-04-26T05:54:03.092Z,60.17
2018-04-26T05:56:33.619Z,56.13
2018-04-26T05:59:04.380Z,60.53
2018-04-26T06:01:35.004Z,60.40
2018-04-26T06:04:06.116Z,67.32
2018-04-26T06:06:36.869Z,62.38
2018-04-26T06:09:08.388Z,63.85
2018-04-26T06:11:39.340Z,63.25
2018-04-26T06:14:10.093Z,64.90
2018-04-26T06:16:41.004Z,57.75
2018-04-26T06:19:11.643Z,62.50
2018-04-26T06:21:42.291Z,68.50
2018-04-26T06:24:12.972Z,62.03
2018-04-26T06:26:43.605Z,61.00
2018-04-26T06:29:14.191Z,67.97
2018-04-26T06:31:44.869Z,65.03
2018-04-26T06:34:15.465Z,65.07
2018-04-26T06:36:46.088Z,62.38
2018-04-26T06:39:17.286Z,61.53
2018-04-26T06:41:47.929Z,62.15
2018-04-26T06:44:18.571Z,62.30
2018-04-26T06:46:49.432Z,59.58
2018-04-26T06:49:20.104Z,61.85
2018-04-26T06:51:50.687Z,66.22
2018-04-26T06:54:21.288Z,64.68
2018-04-26T06:56:51.924Z,65.18
2018-04-26T06:59:22.454Z,64.00
2018-04-26T07:01:53.017Z,64.32
2018-04-26T07:04:23.767Z,65.87
2018-04-26T07:06:54.289Z,65.93
2018-04-26T07:09:24.842Z,64.20
2018-04-26T07:11:55.792Z,59.63
2018-04-26T07:14:26.435Z,63.60
2018-04-26T07:16:57.088Z,65.32
2018-04-26T07:19:27.748Z,60.97
2018-04-26T07:21:58.329Z,58.67
2018-04-26T07:24:29.047Z,59.17
2018-04-26T07:26:59.677Z,60.90
2018-04-26T07:29:30.431Z,60.47
2018-04-26T07:32:00.996Z,59.63
2018-04-26T07:34:31.731Z,62.22
2018-04-26T07:37:02.425Z,63.22
2018-04-26T07:39:33.243Z,57.22
2018-04-26T07:42:03.822Z,63.47
2018-04-26T07:44:34.474Z,63.42
2018-04-26T07:47:05.106Z,63.58
2018-04-26T07:49:36.267Z,62.67
2018-04-26T07:52:07.067Z,60.38
2018-04-26T07:54:37.593Z,60.60
2018-04-26T07:57:08.183Z,58.92
2018-04-26T07:59:39.101Z,65.05
2018-04-26T08:02:09.821Z,58.53
2018-04-26T08:04:40.407Z,64.85
2018-04-26T08:07:10.964Z,58.97
2018-04-26T08:09:41.501Z,66.53
2018-04-26T08:12:12.248Z,65.68
2018-04-26T08:14:43.014Z,65.15
2018-04-26T08:17:13.711Z,65.72
2018-04-26T08:19:44.314Z,70.80
2018-04-26T08:22:14.978Z,66.87
2018-04-26T08:24:45.661Z,64.05
2018-04-26T08:27:16.325Z,65.82
2018-04-26T08:29:46.993Z,66.45
2018-04-26T08:32:17.729Z,69.10
2018-04-26T08:34:48.306Z,66.75
2018-04-26T08:37:19.182Z,64.57
2018-04-26T08:39:49.965Z,59.60
2018-04-26T08:42:20.643Z,67.40
2018-04-26T08:44:51.253Z,69.80
2018-04-26T08:47:21.940Z,71.90
2018-04-26T08:49:52.676Z,72.10
2018-04-26T08:52:23.522Z,70.05
2018-04-26T08:54:54.238Z,68.75
2018-04-26T08:57:25.050Z,74.10
2018-04-26T08:59:55.625Z,74.57
2018-04-26T09:02:26.427Z,76.75
2018-04-26T09:04:57.145Z,77.40
2018-04-26T09:07:27.858Z,74.22
2018-04-26T09:09:58.469Z,69.20
2018-04-26T09:12:29.376Z,71.57
2018-04-26T09:14:59.976Z,69.43
2018-04-26T09:17:30.667Z,70.60
2018-04-26T09:20:01.366Z,71.00
2018-04-26T09:22:31.997Z,70.82
2018-04-26T09:25:02.835Z,66.65
2018-04-26T09:27:33.584Z,65.47
2018-04-26T09:30:04.207Z,65.12
2018-04-26T09:32:34.869Z,63.50
2018-04-26T09:35:05.601Z,65.90
2018-04-26T09:37:36.298Z,65.43
2018-04-26T09:40:07.092Z,65.12
2018-04-26T09:42:37.855Z,67.47
2018-04-26T09:45:08.595Z,64.50
2018-04-26T09:47:39.284Z,64.68
2018-04-26T09:50:10.035Z,66.12
2018-04-26T09:52:40.840Z,68.60
2018-04-26T09:55:11.449Z,67.37
2018-04-26T09:57:41.991Z,67.70
2018-04-26T10:00:16.731Z,68.80
2018-04-26T10:02:47.664Z,74.85
2018-04-26T10:05:18.996Z,75.45
2018-04-26T10:07:49.708Z,71.55
2018-04-26T10:10:20.580Z,74.78
2018-04-26T10:12:51.242Z,70.70
2018-04-26T10:15:21.809Z,71.68
2018-04-26T10:17:52.715Z,67.78
2018-04-26T10:20:23.444Z,68.55
2018-04-26T10:22:54.119Z,68.45
2018-04-26T10:25:24.722Z,69.37
2018-04-26T10:27:55.280Z,71.20
2018-04-26T10:30:25.844Z,72.62
2018-04-26T10:32:56.466Z,72.80
2018-04-26T10:35:28.289Z,71.22
2018-04-26T10:37:58.994Z,68.82
2018-04-26T10:40:29.649Z,70.47
2018-04-26T10:43:01.334Z,76.32
2018-04-26T10:45:32.083Z,73.93
2018-04-26T10:48:02.681Z,65.57
2018-04-26T10:50:33.580Z,74.25
2018-04-26T10:53:04.190Z,74.87
2018-04-26T10:55:35.189Z,74.85
2018-04-26T10:58:05.783Z,68.20
2018-04-26T11:00:40.369Z,72.55
2018-04-26T11:03:13.126Z,73.07
2018-04-26T11:05:43.893Z,77.55
2018-04-26T11:08:14.846Z,79.85
2018-04-26T11:10:46.396Z,69.97
2018-04-26T11:13:17.023Z,77.68
2018-04-26T11:15:47.861Z,73.32
2018-04-26T11:18:18.788Z,70.93
2018-04-26T11:20:49.836Z,71.80
2018-04-26T11:23:21.020Z,79.28
2018-04-26T11:25:51.828Z,73.25
2018-04-26T11:28:22.483Z,72.05
2018-04-26T11:30:53.686Z,79.12
2018-04-26T11:33:24.315Z,74.57
2018-04-26T11:35:55.415Z,76.32
2018-04-26T11:38:26.223Z,83.90
2018-04-26T11:40:57.497Z,76.95
2018-04-26T11:43:28.195Z,75.20
2018-04-26T11:45:58.937Z,75.85
2018-04-26T11:48:29.568Z,75.47
2018-04-26T11:51:00.391Z,75.50
2018-04-26T11:53:31.206Z,73.32
2018-04-26T11:56:01.985Z,71.53
2018-04-26T11:58:32.759Z,74.00
2018-04-26T12:01:03.364Z,70.85
2018-04-26T12:03:34.140Z,69.45
2018-04-26T12:06:05.033Z,68.18
2018-04-26T12:08:35.694Z,68.35
2018-04-26T12:11:07.359Z,65.50
2018-04-26T12:13:38.032Z,75.93
2018-04-26T12:16:09.173Z,75.53
2018-04-26T12:18:40.152Z,74.32
2018-04-26T12:21:11.018Z,71.03
2018-04-26T12:23:41.649Z,74.35
2018-04-26T12:26:12.468Z,72.87
2018-04-26T12:28:44.106Z,69.57
2018-04-26T12:31:14.811Z,66.75
2018-04-26T12:33:45.627Z,75.65
2018-04-26T12:36:16.246Z,74.28
2018-04-26T12:38:46.911Z,71.75
2018-04-26T12:41:17.580Z,70.03
2018-04-26T12:43:48.414Z,68.68
2018-04-26T12:46:19.427Z,66.60
2018-04-26T12:48:50.087Z,69.93
2018-04-26T12:51:20.835Z,69.18
2018-04-26T12:53:51.444Z,70.15
2018-04-26T12:56:22.159Z,73.93
2018-04-26T12:58:52.983Z,80.75
2018-04-26T13:01:23.730Z,76.07
2018-04-26T13:03:54.412Z,75.53
2018-04-26T13:06:25.209Z,77.95
2018-04-26T13:08:55.855Z,74.68
2018-04-26T13:11:26.658Z,72.30
2018-04-26T13:14:03.287Z,89.45
2018-04-26T13:16:37.722Z,83.20
2018-04-26T13:19:08.529Z,81.63
2018-04-26T13:21:39.312Z,81.87
2018-04-26T13:24:09.933Z,79.40
2018-04-26T13:26:40.651Z,73.07
2018-04-26T13:29:11.285Z,75.00
2018-04-26T13:31:42.054Z,72.87
2018-04-26T13:34:12.684Z,74.82
2018-04-26T13:36:43.488Z,71.62
2018-04-26T13:39:14.313Z,73.53
2018-04-26T13:41:45.146Z,76.95
2018-04-26T13:44:15.774Z,72.70
2018-04-26T13:46:51.109Z,76.30
2018-04-26T13:49:24.296Z,76.12
2018-04-26T13:51:56.571Z,78.43
2018-04-26T13:54:27.795Z,78.50
2018-04-26T13:56:58.707Z,78.93
2018-04-26T13:59:29.288Z,85.78
2018-04-26T14:02:00.203Z,82.32
2018-04-26T14:04:30.933Z,76.78
2018-04-26T14:07:01.665Z,79.43
2018-04-26T14:09:32.525Z,76.55
2018-04-26T14:12:03.557Z,81.03
2018-04-26T14:14:34.288Z,92.43
2018-04-26T14:17:05.948Z,90.18
2018-04-26T14:19:37.049Z,82.10
2018-04-26T14:22:07.670Z,82.20
2018-04-26T14:24:38.360Z,87.70
2018-04-26T14:27:09.035Z,83.93
2018-04-26T14:29:39.995Z,84.07
2018-04-26T14:32:10.624Z,84.47
2018-04-26T14:34:41.266Z,85.10
2018-04-26T14:37:12.093Z,77.82
2018-04-26T14:39:43.068Z,85.68
2018-04-26T14:42:13.600Z,83.40
2018-04-26T14:44:44.303Z,80.12
2018-04-26T14:47:15.270Z,82.10
2018-04-26T14:49:46.386Z,78.45
2018-04-26T14:52:17.055Z,74.28
2018-04-26T14:54:47.668Z,77.25
2018-04-26T14:57:18.453Z,74.62
2018-04-26T14:59:49.223Z,82.75
2018-04-26T15:02:19.964Z,73.75
2018-04-26T15:04:52.347Z,79.07
2018-04-26T15:07:23.006Z,77.80
2018-04-26T15:09:54.240Z,75.43
2018-04-26T15:12:25.096Z,72.47
2018-04-26T15:14:55.797Z,71.87
2018-04-26T15:17:27.398Z,74.40
2018-04-26T15:19:58.318Z,72.90
2018-04-26T15:22:29.164Z,77.82
2018-04-26T15:24:59.962Z,75.10
2018-04-26T15:27:30.811Z,77.53
2018-04-26T15:30:01.405Z,80.05
2018-04-26T15:32:32.288Z,79.65
2018-04-26T15:35:03.325Z,82.72
2018-04-26T15:37:34.315Z,80.15
2018-04-26T15:40:04.906Z,83.20
2018-04-26T15:42:35.481Z,83.30
2018-04-26T15:45:06.157Z,80.47
2018-04-26T15:47:36.793Z,79.43
2018-04-26T15:50:07.999Z,84.82
2018-04-26T15:52:51.541Z,79.32
2018-04-26T15:56:35.879Z,83.55
2018-04-26T16:00:18.968Z,76.40
2018-04-26T16:04:01.324Z,76.12
2018-04-26T16:06:42.674Z,74.65
2018-04-26T16:09:55.483Z,76.95
2018-04-26T16:15:52.586Z,79.60
2018-04-26T16:18:59.818Z,71.55
2018-04-26T16:22:47.741Z,71.15
2018-04-26T16:25:29.088Z,90.95
2018-04-26T16:28:12.062Z,73.82
2018-04-26T16:30:57.650Z,71.62
2018-04-26T16:33:47.207Z,81.10
2018-04-26T16:36:27.526Z,77.70
2018-04-26T16:39:04.199Z,73.53
2018-04-26T16:41:35.384Z,72.35
2018-04-26T16:44:05.913Z,72.45
2018-04-26T16:46:36.544Z,75.50
2018-04-26T16:49:07.489Z,72.53
2018-04-26T16:51:38.273Z,73.25
2018-04-26T16:54:08.915Z,70.65
2018-04-26T16:56:39.653Z,68.10
2018-04-26T16:59:10.177Z,73.15
2018-04-26T17:01:40.938Z,76.47
2018-04-26T17:04:11.726Z,70.18
2018-04-26T17:06:42.411Z,72.53
2018-04-26T17:09:13.163Z,72.82
2018-04-26T17:11:43.732Z,68.20
2018-04-26T17:14:14.443Z,73.40
2018-04-26T17:16:45.214Z,74.82
2018-04-26T17:19:15.945Z,80.18
2018-04-26T17:21:46.824Z,77.97
2018-04-26T17:24:17.706Z,78.07
2018-04-26T17:26:48.423Z,72.07
2018-04-26T17:29:19.281Z,67.12
2018-04-26T17:31:50.183Z,68.60
2018-04-26T17:34:20.822Z,68.32
2018-04-26T17:36:51.592Z,72.32
2018-04-26T17:39:22.388Z,71.15
2018-04-26T17:41:53.231Z,74.12
2018-04-26T17:44:23.801Z,75.70
2018-04-26T17:46:54.567Z,74.72
2018-04-26T17:49:25.260Z,69.47
2018-04-26T17:51:55.963Z,71.80
2018-04-26T17:54:26.815Z,73.90
2018-04-26T17:56:57.546Z,73.15
2018-04-26T17:59:29.079Z,73.90
2018-04-26T18:01:59.692Z,68.00
2018-04-26T18:04:31.399Z,71.78
2018-04-26T18:07:01.977Z,74.10
2018-04-26T18:09:32.725Z,78.70
2018-04-26T18:12:03.461Z,70.03
2018-04-26T18:14:34.172Z,72.80
2018-04-26T18:17:05.124Z,66.97
2018-04-26T18:19:35.945Z,72.60
2018-04-26T18:22:06.668Z,68.25
2018-04-26T18:24:37.260Z,96.55
2018-04-26T18:27:08.084Z,78.47
2018-04-26T18:29:38.606Z,71.95
2018-04-26T18:32:09.278Z,73.55
2018-04-26T18:34:39.898Z,77.65
2018-04-26T18:37:10.724Z,70.53
2018-04-26T18:39:41.423Z,71.32
2018-04-26T18:42:12.138Z,68.55
2018-04-26T18:44:43.242Z,71.68
2018-04-26T18:47:14.071Z,67.12
2018-04-26T18:49:44.758Z,71.32
2018-04-26T18:52:15.595Z,68.47
2018-04-26T18:54:46.329Z,75.22
2018-04-26T18:57:17.109Z,69.53
2018-04-26T18:59:48.047Z,73.18
2018-04-26T19:02:18.947Z,62.78
2018-04-26T19:04:49.673Z,70.20
2018-04-26T19:07:20.447Z,68.22
2018-04-26T19:09:51.966Z,68.07
2018-04-26T19:12:22.671Z,71.00
2018-04-26T19:14:53.874Z,67.70
2018-04-26T19:17:24.483Z,65.28
2018-04-26T19:19:55.366Z,69.60
2018-04-26T19:22:26.315Z,71.82
2018-04-26T19:24:57.162Z,64.68
2018-04-26T19:27:28.078Z,59.53
2018-04-26T19:29:58.665Z,67.35
2018-04-26T19:32:29.439Z,62.53
2018-04-26T19:35:00.629Z,63.72
2018-04-26T19:37:31.499Z,67.15
2018-04-26T19:40:02.232Z,66.30
2018-04-26T19:42:33.047Z,63.55
2018-04-26T19:45:03.944Z,64.28
2018-04-26T19:51:03.746Z,75.20
2018-04-26T19:56:38.296Z,65.35
2018-04-26T19:59:08.860Z,66.80
2018-04-26T20:01:39.678Z,66.55
2018-04-26T20:04:10.328Z,69.10
2018-04-26T20:06:41.451Z,71.18
2018-04-26T20:09:12.459Z,76.53
2018-04-26T20:11:43.172Z,69.05
2018-04-26T20:14:13.747Z,73.28
2018-04-26T20:16:44.297Z,66.50
2018-04-26T20:19:15.139Z,62.38
2018-04-26T20:21:45.709Z,68.18
2018-04-26T20:24:16.397Z,65.85
2018-04-26T20:26:49.424Z,70.85
2018-04-26T20:29:20.447Z,66.95
2018-04-26T20:31:51.055Z,70.57
2018-04-26T20:34:22.492Z,70.60
2018-04-26T20:36:53.113Z,75.85
2018-04-26T20:39:23.815Z,70.75
2018-04-26T20:41:56.649Z,66.00
2018-04-26T20:44:52.041Z,61.10
2018-04-26T20:47:22.707Z,61.92
2018-04-26T20:49:53.265Z,56.05
2018-04-26T20:52:23.888Z,57.45
2018-04-26T20:54:54.597Z,60.53
2018-04-26T20:57:25.423Z,64.12
2018-04-26T20:59:56.115Z,58.63
2018-04-26T21:02:26.886Z,60.80
2018-04-26T21:04:57.577Z,62.90
2018-04-26T21:07:28.125Z,60.85
2018-04-26T21:09:59.016Z,62.58
2018-04-26T21:12:29.641Z,62.10
2018-04-26T21:15:00.212Z,57.47
2018-04-26T21:17:30.688Z,65.12
2018-04-26T21:20:02.040Z,59.00
2018-04-26T21:22:32.810Z,63.13
2018-04-26T21:25:03.511Z,59.83
2018-04-26T21:27:34.155Z,64.37
2018-04-26T21:30:04.832Z,61.83
2018-04-26T21:32:35.401Z,60.53
2018-04-26T21:35:05.948Z,63.87
2018-04-26T21:37:36.847Z,60.67
2018-04-26T21:40:07.740Z,66.35
2018-04-26T21:42:38.430Z,62.65
2018-04-26T21:45:08.928Z,66.03
2018-04-26T21:47:39.650Z,61.97
2018-04-26T21:50:15.400Z,62.35
2018-04-26T21:52:51.213Z,63.25
2018-04-26T21:55:27.563Z,61.15
2018-04-26T21:58:03.410Z,67.22
2018-04-26T22:00:39.177Z,64.20
2018-04-26T22:03:09.995Z,57.00
2018-04-26T22:05:40.784Z,64.15
2018-04-26T22:08:11.536Z,63.22
2018-04-26T22:10:42.202Z,67.82
2018-04-26T22:13:12.793Z,64.32
2018-04-26T22:15:43.420Z,68.03
2018-04-26T22:18:13.988Z,70.07
2018-04-26T22:20:44.552Z,62.25
2018-04-26T22:23:15.143Z,65.32
2018-04-26T22:25:45.827Z,60.58
2018-04-26T22:28:16.483Z,59.15
2018-04-26T22:30:46.953Z,63.50
2018-04-26T22:33:17.440Z,64.32
2018-04-26T22:35:48.028Z,61.05
2018-04-26T22:38:18.687Z,56.25
2018-04-26T22:40:49.348Z,60.75
2018-04-26T22:43:20.031Z,54.80
2018-04-26T22:45:50.735Z,60.12
2018-04-26T22:48:21.709Z,54.95
2018-04-26T22:50:52.315Z,60.10
2018-04-26T22:53:22.842Z,57.92
2018-04-26T22:55:53.415Z,59.58
2018-04-26T22:58:23.993Z,65.35
2018-04-26T23:00:54.615Z,59.70
2018-04-26T23:03:25.252Z,64.90
2018-04-26T23:05:55.915Z,60.15
2018-04-26T23:08:26.591Z,63.47
2018-04-26T23:10:57.160Z,64.10
2018-04-26T23:13:27.951Z,63.13
2018-04-26T23:15:59.167Z,63.67
2018-04-26T23:18:29.920Z,64.72
2018-04-26T23:21:00.579Z,59.83
2018-04-26T23:23:31.514Z,56.83
2018-04-26T23:26:02.227Z,61.10
2018-04-26T23:28:33.044Z,60.83
2018-04-26T23:31:03.781Z,57.10
2018-04-26T23:33:34.479Z,58.08
2018-04-26T23:36:05.137Z,59.88
2018-04-26T23:38:35.728Z,57.15
2018-04-26T23:41:06.353Z,53.97
2018-04-26T23:43:36.972Z,57.22
2018-04-26T23:46:07.616Z,59.10
2018-04-26T23:48:38.217Z,58.47
2018-04-26T23:51:08.903Z,51.50
2018-04-26T23:53:39.425Z,53.28
2018-04-26T23:56:10.144Z,59.20
2018-04-26T23:58:40.939Z,56.45
